Time;durP1;ratioP1;P1;durP2;ratioP2;P2;SDS_P1;SDS_P2;PMS_P1;PMS_P2;Temp;Humidity;BMP_temperature;BMP_pressure;BME280_temperature;BME280_humidity;BME280_pressure;Samples;Min_cycle;Max_cycle;Signal;HPM_P1;HPM_P2
2023/01/10 00:00:49;;;;;;;1.00;1.00;;;;;;;;;;5050288;28;20480;-75
2023/01/10 00:03:17;;;;;;;2.00;1.00;;;;;;;;;;5050172;28;20790;-75
2023/01/10 00:05:45;;;;;;;1.20;1.10;;;;;;;;;;5050832;28;20441;-75
2023/01/10 00:08:15;;;;;;;1.27;1.17;;;;;;;;;;5052796;28;20511;-75
2023/01/10 00:10:42;;;;;;;1.30;1.30;;;;;;;;;;5053434;28;20444;-74
2023/01/10 00:13:25;;;;;;;1.30;1.23;;;;;;;;;;5054999;28;20458;-75
2023/01/10 00:15:52;;;;;;;1.57;1.40;;;;;;;;;;5044217;28;20529;-76
2023/01/10 00:18:19;;;;;;;1.20;1.20;;;;;;;;;;5049349;28;20469;-75
2023/01/10 00:20:49;;;;;;;1.20;1.13;;;;;;;;;;5052124;28;20483;-74
2023/01/10 00:23:22;;;;;;;0.90;0.90;;;;;;;;;;5052538;28;20442;-74
2023/01/10 00:25:49;;;;;;;1.20;1.10;;;;;;;;;;5033385;28;20436;-74
2023/01/10 00:28:18;;;;;;;1.20;1.20;;;;;;;;;;5032738;28;20474;-76
2023/01/10 00:30:48;;;;;;;1.10;1.10;;;;;;;;;;5046883;28;20456;-75
2023/01/10 00:33:19;;;;;;;1.23;1.20;;;;;;;;;;5052951;28;20907;-76
2023/01/10 00:35:46;;;;;;;1.43;1.43;;;;;;;;;;5052900;28;20437;-75
2023/01/10 00:38:15;;;;;;;1.53;1.43;;;;;;;;;;5052838;28;20464;-74
2023/01/10 00:40:42;;;;;;;1.40;1.40;;;;;;;;;;5052788;28;20551;-75
2023/01/10 00:45:56;;;;;;;1.50;1.40;;;;;;;;;;5052359;28;20468;-75
2023/01/10 00:48:23;;;;;;;1.63;1.53;;;;;;;;;;5052168;28;20479;-75
2023/01/10 00:50:50;;;;;;;1.60;1.50;;;;;;;;;;5056167;28;20448;-76
2023/01/10 00:53:18;;;;;;;2.10;2.00;;;;;;;;;;5055637;28;20539;-75
2023/01/10 00:55:45;;;;;;;2.00;1.90;;;;;;;;;;5052374;28;20448;-74
2023/01/10 00:58:13;;;;;;;1.60;1.50;;;;;;;;;;5052169;28;20478;-76
2023/01/10 01:00:40;;;;;;;1.57;1.57;;;;;;;;;;5052464;28;20491;-77
2023/01/10 01:03:07;;;;;;;1.50;1.50;;;;;;;;;;5053423;28;20449;-74
2023/01/10 01:05:35;;;;;;;1.53;1.43;;;;;;;;;;5058331;28;20484;-74
2023/01/10 01:08:02;;;;;;;1.50;1.50;;;;;;;;;;5058914;28;20476;-75
2023/01/10 01:10:31;;;;;;;2.90;1.50;;;;;;;;;;5063935;28;20444;-75
2023/01/10 01:12:59;;;;;;;3.43;2.43;;;;;;;;;;5060137;28;20977;-74
2023/01/10 01:15:27;;;;;;;1.70;1.70;;;;;;;;;;5059697;28;20501;-75
2023/01/10 01:17:55;;;;;;;1.50;1.40;;;;;;;;;;5065948;28;20469;-74
2023/01/10 01:20:22;;;;;;;1.93;1.77;;;;;;;;;;5066027;28;20472;-77
2023/01/10 01:22:49;;;;;;;1.83;1.77;;;;;;;;;;5062156;28;20452;-75
2023/01/10 01:25:16;;;;;;;3.03;1.93;;;;;;;;;;5056338;28;20449;-75
2023/01/10 01:27:45;;;;;;;2.17;2.00;;;;;;;;;;5052087;28;20460;-76
2023/01/10 01:30:13;;;;;;;1.50;1.50;;;;;;;;;;5052057;28;20452;-76
2023/01/10 01:32:40;;;;;;;1.30;1.30;;;;;;;;;;5053020;28;20460;-76
2023/01/10 01:35:08;;;;;;;1.90;1.80;;;;;;;;;;5064970;28;20496;-75
2023/01/10 01:37:35;;;;;;;1.40;1.40;;;;;;;;;;5062969;28;20948;-75
2023/01/10 01:40:02;;;;;;;1.30;1.30;;;;;;;;;;5065400;28;20988;-75
2023/01/10 01:42:30;;;;;;;1.73;1.63;;;;;;;;;;5059388;28;20450;-76
2023/01/10 01:45:21;;;;;;;1.80;1.70;;;;;;;;;;5058206;28;20440;-75
2023/01/10 01:47:49;;;;;;;1.50;1.40;;;;;;;;;;5062344;28;20456;-74
2023/01/10 01:50:19;;;;;;;1.30;1.10;;;;;;;;;;5051646;28;20533;-75
2023/01/10 01:52:49;;;;;;;1.40;1.13;;;;;;;;;;5051507;28;20445;-76
2023/01/10 01:55:16;;;;;;;1.40;1.30;;;;;;;;;;5051285;28;20529;-76
2023/01/10 01:57:44;;;;;;;1.30;1.30;;;;;;;;;;5050989;28;20929;-75
2023/01/10 02:00:14;;;;;;;1.13;1.13;;;;;;;;;;5050846;28;20470;-74
2023/01/10 02:02:43;;;;;;;1.33;1.33;;;;;;;;;;5051006;28;20442;-74
2023/01/10 02:05:11;;;;;;;1.40;1.40;;;;;;;;;;5051070;28;20460;-75
2023/01/10 02:07:40;;;;;;;1.20;1.20;;;;;;;;;;5050518;28;20445;-75
2023/01/10 02:10:09;;;;;;;1.70;1.30;;;;;;;;;;5050972;28;20438;-75
2023/01/10 02:12:36;;;;;;;1.10;1.10;;;;;;;;;;5050537;28;20824;-75
2023/01/10 02:15:03;;;;;;;1.17;1.17;;;;;;;;;;5050785;28;20444;-75
2023/01/10 02:17:32;;;;;;;1.40;1.40;;;;;;;;;;5050620;28;21135;-75
2023/01/10 02:20:02;;;;;;;1.40;1.40;;;;;;;;;;5050099;28;20965;-74
2023/01/10 02:22:44;;;;;;;1.20;1.20;;;;;;;;;;5049817;28;20532;-75
2023/01/10 02:25:21;;;;;;;1.50;1.50;;;;;;;;;;5048320;28;20451;-76
2023/01/10 02:27:58;;;;;;;1.73;1.53;;;;;;;;;;5046227;28;20562;-75
2023/01/10 02:30:37;;;;;;;2.33;1.77;;;;;;;;;;5039353;28;20441;-75
2023/01/10 02:33:11;;;;;;;1.90;1.60;;;;;;;;;;5049903;28;20439;-76
2023/01/10 02:35:50;;;;;;;1.50;1.50;;;;;;;;;;5050518;28;20439;-76
2023/01/10 02:38:21;;;;;;;1.73;1.73;;;;;;;;;;5049830;28;20476;-76
2023/01/10 02:40:52;;;;;;;1.50;1.50;;;;;;;;;;5049842;28;20984;-76
2023/01/10 02:43:20;;;;;;;2.13;2.03;;;;;;;;;;5048927;28;20445;-75
2023/01/10 02:45:50;;;;;;;1.50;1.50;;;;;;;;;;5050128;28;20458;-74
2023/01/10 02:48:19;;;;;;;1.80;1.70;;;;;;;;;;5050260;28;20468;-74
2023/01/10 02:50:58;;;;;;;4.07;2.17;;;;;;;;;;5050008;28;20913;-77
2023/01/10 02:53:27;;;;;;;1.80;1.70;;;;;;;;;;5049954;28;20473;-76
2023/01/10 02:56:13;;;;;;;1.90;1.80;;;;;;;;;;5050180;28;20540;-76
2023/01/10 02:58:45;;;;;;;1.60;1.60;;;;;;;;;;5049705;28;20691;-77
2023/01/10 03:01:17;;;;;;;2.13;1.70;;;;;;;;;;5049782;28;20465;-76
2023/01/10 03:03:47;;;;;;;1.83;1.73;;;;;;;;;;5049674;28;20905;-74
2023/01/10 03:06:19;;;;;;;2.40;1.83;;;;;;;;;;5050040;28;20441;-76
2023/01/10 03:08:49;;;;;;;1.70;1.60;;;;;;;;;;5049407;28;20465;-75
2023/01/10 03:11:38;;;;;;;1.93;1.83;;;;;;;;;;5049631;28;20827;-76
2023/01/10 03:14:04;;;;;;;3.00;2.10;;;;;;;;;;5049241;28;20493;-76
2023/01/10 03:16:32;;;;;;;1.70;1.60;;;;;;;;;;5050037;28;20495;-75
2023/01/10 03:19:02;;;;;;;2.17;2.00;;;;;;;;;;5049785;28;20477;-77
2023/01/10 03:21:30;;;;;;;2.40;2.10;;;;;;;;;;5049497;28;20491;-77
2023/01/10 03:24:00;;;;;;;2.27;2.10;;;;;;;;;;5049537;28;20441;-75
2023/01/10 03:26:29;;;;;;;2.70;2.50;;;;;;;;;;5049633;28;20472;-77
2023/01/10 03:28:58;;;;;;;3.43;2.43;;;;;;;;;;5049455;28;20484;-75
2023/01/10 03:31:29;;;;;;;2.87;2.50;;;;;;;;;;5049272;28;20441;-76
2023/01/10 03:33:56;;;;;;;3.33;2.40;;;;;;;;;;5049360;28;20442;-75
2023/01/10 03:36:29;;;;;;;8.43;2.97;;;;;;;;;;5049312;28;20840;-75
2023/01/10 03:38:58;;;;;;;4.10;3.20;;;;;;;;;;5049441;28;20468;-76
2023/01/10 03:41:30;;;;;;;3.00;2.70;;;;;;;;;;5049247;28;20489;-75
2023/01/10 03:46:48;;;;;;;6.70;2.73;;;;;;;;;;5050037;28;20404;-76
2023/01/10 03:49:16;;;;;;;3.90;3.50;;;;;;;;;;5049236;28;20464;-75
2023/01/10 03:51:45;;;;;;;3.87;3.47;;;;;;;;;;5049825;28;20469;-75
2023/01/10 03:54:12;;;;;;;4.13;2.87;;;;;;;;;;5052219;28;20450;-76
2023/01/10 03:56:46;;;;;;;3.10;2.90;;;;;;;;;;5063354;28;20463;-76
2023/01/10 03:59:13;;;;;;;3.17;2.87;;;;;;;;;;5063457;28;20507;-75
2023/01/10 04:01:40;;;;;;;4.83;2.80;;;;;;;;;;5054241;28;20483;-75
2023/01/10 04:04:07;;;;;;;3.10;2.90;;;;;;;;;;5065661;28;20457;-76
2023/01/10 04:06:34;;;;;;;3.60;3.00;;;;;;;;;;5062175;28;20458;-76
2023/01/10 04:09:03;;;;;;;3.17;2.50;;;;;;;;;;5054510;28;20479;-76
2023/01/10 04:11:30;;;;;;;3.60;2.73;;;;;;;;;;5051973;28;20453;-77
2023/01/10 04:13:57;;;;;;;2.50;2.40;;;;;;;;;;5050960;28;20443;-76
2023/01/10 04:16:24;;;;;;;3.23;2.60;;;;;;;;;;5050438;28;20936;-75
2023/01/10 04:18:51;;;;;;;2.70;2.60;;;;;;;;;;5050737;28;20465;-75
2023/01/10 04:21:18;;;;;;;3.80;3.10;;;;;;;;;;5050854;28;20496;-76
2023/01/10 04:23:45;;;;;;;2.80;2.50;;;;;;;;;;5050324;28;20515;-76
2023/01/10 04:26:14;;;;;;;2.97;2.60;;;;;;;;;;5050908;28;20441;-76
2023/01/10 04:28:41;;;;;;;2.87;2.53;;;;;;;;;;5050312;28;20528;-76
2023/01/10 04:31:08;;;;;;;4.23;2.70;;;;;;;;;;5050855;28;20475;-76
2023/01/10 04:33:35;;;;;;;4.83;3.53;;;;;;;;;;5050374;28;20453;-76
2023/01/10 04:36:02;;;;;;;6.03;2.57;;;;;;;;;;5050426;28;20784;-76
2023/01/10 04:38:29;;;;;;;4.30;3.20;;;;;;;;;;5050026;28;20956;-76
2023/01/10 04:40:57;;;;;;;6.53;2.93;;;;;;;;;;5050021;28;20473;-76
2023/01/10 04:43:27;;;;;;;5.23;3.00;;;;;;;;;;5050348;28;20445;-75
2023/01/10 04:45:54;;;;;;;3.70;2.70;;;;;;;;;;5049939;28;20797;-76
2023/01/10 04:48:21;;;;;;;3.63;3.03;;;;;;;;;;5050324;28;20521;-75
2023/01/10 04:50:52;;;;;;;3.30;3.00;;;;;;;;;;5050455;28;21043;-77
2023/01/10 04:53:19;;;;;;;4.73;2.80;;;;;;;;;;5050146;28;20448;-75
2023/01/10 04:55:46;;;;;;;3.10;2.83;;;;;;;;;;5050554;28;20446;-76
2023/01/10 04:58:13;;;;;;;4.40;2.73;;;;;;;;;;5050745;28;20460;-76
2023/01/10 05:00:41;;;;;;;11.73;3.47;;;;;;;;;;5051552;28;20491;-74
2023/01/10 05:03:08;;;;;;;7.37;3.50;;;;;;;;;;5050760;28;20445;-75
2023/01/10 05:05:35;;;;;;;7.03;3.03;;;;;;;;;;5050826;28;20451;-76
2023/01/10 05:08:06;;;;;;;5.33;3.07;;;;;;;;;;5052387;28;20465;-77
2023/01/10 05:10:33;;;;;;;4.67;3.03;;;;;;;;;;5053181;28;20906;-75
2023/01/10 05:13:00;;;;;;;6.27;3.50;;;;;;;;;;5051395;28;20461;-75
2023/01/10 05:15:27;;;;;;;4.97;2.97;;;;;;;;;;5052807;28;20437;-76
2023/01/10 05:17:59;;;;;;;5.30;3.40;;;;;;;;;;5050444;28;20988;-76
2023/01/10 05:20:26;;;;;;;7.27;3.20;;;;;;;;;;5050035;28;21060;-76
2023/01/10 05:22:53;;;;;;;5.97;3.23;;;;;;;;;;5049603;28;20481;-76
2023/01/10 05:25:20;;;;;;;6.20;3.17;;;;;;;;;;5049400;28;20442;-77
2023/01/10 05:27:47;;;;;;;5.00;2.93;;;;;;;;;;5049080;28;20489;-75
2023/01/10 05:30:15;;;;;;;6.40;3.10;;;;;;;;;;5049258;28;20449;-76
2023/01/10 05:32:42;;;;;;;6.60;3.17;;;;;;;;;;5049140;28;20437;-75
2023/01/10 05:35:10;;;;;;;4.57;2.90;;;;;;;;;;5050768;28;20445;-76
2023/01/10 05:37:37;;;;;;;6.23;3.10;;;;;;;;;;5049145;28;20551;-75
2023/01/10 05:40:05;;;;;;;5.00;2.80;;;;;;;;;;5049172;28;20454;-75
2023/01/10 05:42:32;;;;;;;5.03;3.33;;;;;;;;;;5048898;28;21029;-75
2023/01/10 05:44:59;;;;;;;5.43;3.33;;;;;;;;;;5049701;28;20459;-78
2023/01/10 05:47:26;;;;;;;5.60;2.50;;;;;;;;;;5049234;28;20449;-75
2023/01/10 05:49:53;;;;;;;4.77;3.53;;;;;;;;;;5049581;28;20455;-75
2023/01/10 05:52:21;;;;;;;4.00;2.67;;;;;;;;;;5049060;28;20452;-75
2023/01/10 05:54:48;;;;;;;13.47;3.20;;;;;;;;;;5048987;28;20445;-77
2023/01/10 05:57:15;;;;;;;6.70;2.70;;;;;;;;;;5048747;28;20790;-78
2023/01/10 05:59:42;;;;;;;11.53;3.37;;;;;;;;;;5048585;28;20993;-76
2023/01/10 06:02:09;;;;;;;5.00;2.73;;;;;;;;;;5048838;28;20488;-76
2023/01/10 06:04:36;;;;;;;5.30;2.67;;;;;;;;;;5054462;28;20495;-76
2023/01/10 06:07:03;;;;;;;8.23;2.90;;;;;;;;;;5055198;28;20453;-76
2023/01/10 06:09:32;;;;;;;6.50;3.00;;;;;;;;;;5050310;28;20477;-76
2023/01/10 06:11:59;;;;;;;8.97;2.40;;;;;;;;;;5049046;28;20507;-76
2023/01/10 06:14:26;;;;;;;5.43;2.50;;;;;;;;;;5048368;28;20426;-76
2023/01/10 06:16:53;;;;;;;5.63;3.73;;;;;;;;;;5048918;28;20444;-76
2023/01/10 06:19:20;;;;;;;4.83;2.50;;;;;;;;;;5048370;28;20469;-76
2023/01/10 06:21:47;;;;;;;6.53;2.47;;;;;;;;;;5048511;28;20821;-76
2023/01/10 06:24:14;;;;;;;6.10;2.87;;;;;;;;;;5048169;28;20495;-76
2023/01/10 06:26:43;;;;;;;6.40;2.87;;;;;;;;;;5048186;28;20456;-76
2023/01/10 06:29:10;;;;;;;3.63;2.10;;;;;;;;;;5048271;28;20472;-74
2023/01/10 06:31:37;;;;;;;8.57;3.00;;;;;;;;;;5047961;28;20480;-76
2023/01/10 06:34:04;;;;;;;8.77;2.80;;;;;;;;;;5047966;28;20941;-75
2023/01/10 06:36:31;;;;;;;6.73;2.40;;;;;;;;;;5051075;28;20459;-77
2023/01/10 06:38:58;;;;;;;4.43;2.47;;;;;;;;;;5049888;28;20472;-77
2023/01/10 06:41:25;;;;;;;3.40;2.40;;;;;;;;;;5040951;28;20455;-75
2023/01/10 06:43:53;;;;;;;3.47;2.00;;;;;;;;;;5043703;28;20469;-77
2023/01/10 06:46:20;;;;;;;6.97;2.60;;;;;;;;;;5049494;28;20456;-75
2023/01/10 06:48:48;;;;;;;5.43;3.07;;;;;;;;;;5028526;28;20483;-75
2023/01/10 06:51:16;;;;;;;11.20;2.70;;;;;;;;;;5029634;28;20453;-76
2023/01/10 06:53:43;;;;;;;6.83;2.80;;;;;;;;;;5029483;28;20457;-74
2023/01/10 06:56:11;;;;;;;5.20;2.60;;;;;;;;;;5029532;28;20454;-76
2023/01/10 06:58:38;;;;;;;5.30;2.40;;;;;;;;;;5028700;28;20478;-75
2023/01/10 07:01:06;;;;;;;4.87;2.87;;;;;;;;;;5028511;28;20453;-74
2023/01/10 07:03:34;;;;;;;6.17;2.40;;;;;;;;;;5027846;28;20494;-75
2023/01/10 07:06:02;;;;;;;3.37;2.43;;;;;;;;;;5028258;28;20456;-74
2023/01/10 07:08:29;;;;;;;5.40;2.27;;;;;;;;;;5041731;28;20519;-74
2023/01/10 07:10:59;;;;;;;12.80;2.40;;;;;;;;;;5047444;28;20528;-77
2023/01/10 07:13:26;;;;;;;6.53;2.50;;;;;;;;;;5047698;28;20801;-76
2023/01/10 07:15:53;;;;;;;7.20;3.13;;;;;;;;;;5047635;28;20445;-75
2023/01/10 07:18:21;;;;;;;6.20;2.63;;;;;;;;;;5047062;28;20532;-75
2023/01/10 07:20:48;;;;;;;4.70;2.40;;;;;;;;;;5047255;28;20454;-74
2023/01/10 07:23:15;;;;;;;5.03;2.30;;;;;;;;;;5047396;28;20484;-74
2023/01/10 07:25:42;;;;;;;7.70;2.90;;;;;;;;;;5047368;28;20457;-75
2023/01/10 07:28:09;;;;;;;9.37;2.60;;;;;;;;;;5046976;28;20488;-76
2023/01/10 07:30:37;;;;;;;6.23;2.97;;;;;;;;;;5046528;28;20448;-74
2023/01/10 07:33:05;;;;;;;7.10;2.87;;;;;;;;;;5046937;28;20477;-76
2023/01/10 07:35:33;;;;;;;5.77;2.87;;;;;;;;;;5047042;28;20549;-75
2023/01/10 07:38:02;;;;;;;8.83;2.83;;;;;;;;;;5047379;28;20476;-76
2023/01/10 07:40:29;;;;;;;5.50;2.47;;;;;;;;;;5047603;28;20544;-77
2023/01/10 07:42:57;;;;;;;4.30;2.47;;;;;;;;;;5046606;28;20491;-75
2023/01/10 07:45:25;;;;;;;6.83;2.43;;;;;;;;;;5047322;28;20448;-77
2023/01/10 07:47:56;;;;;;;5.50;2.47;;;;;;;;;;5047237;28;20472;-75
2023/01/10 07:50:23;;;;;;;5.53;2.77;;;;;;;;;;5047062;28;20469;-75
2023/01/10 07:52:51;;;;;;;8.33;2.67;;;;;;;;;;5046771;28;20438;-75
2023/01/10 07:55:18;;;;;;;5.97;2.63;;;;;;;;;;5046544;28;20531;-76
2023/01/10 07:57:45;;;;;;;6.47;2.40;;;;;;;;;;5047704;28;20459;-75
2023/01/10 08:00:13;;;;;;;8.77;2.40;;;;;;;;;;5047353;28;20483;-75
2023/01/10 08:02:40;;;;;;;8.17;2.40;;;;;;;;;;5046931;28;20481;-75
2023/01/10 08:05:07;;;;;;;7.17;2.13;;;;;;;;;;5047041;28;20476;-76
2023/01/10 08:07:34;;;;;;;7.53;3.00;;;;;;;;;;5046750;28;20560;-76
2023/01/10 08:10:02;;;;;;;6.10;2.30;;;;;;;;;;5047104;28;20535;-77
2023/01/10 08:12:29;;;;;;;6.30;2.30;;;;;;;;;;5046693;28;20449;-76
2023/01/10 08:14:57;;;;;;;4.77;2.77;;;;;;;;;;5048049;28;20449;-76
2023/01/10 08:17:24;;;;;;;7.00;3.27;;;;;;;;;;5046970;28;20449;-76
2023/01/10 08:19:51;;;;;;;6.80;2.53;;;;;;;;;;5044345;28;20995;-75
2023/01/10 08:22:18;;;;;;;10.10;3.17;;;;;;;;;;5046446;28;21026;-75
2023/01/10 08:24:45;;;;;;;8.10;3.43;;;;;;;;;;5046944;28;20444;-75
2023/01/10 08:27:13;;;;;;;9.83;3.07;;;;;;;;;;5046710;28;20457;-77
2023/01/10 08:29:40;;;;;;;2.70;1.60;;;;;;;;;;5046521;28;21066;-75
2023/01/10 08:32:08;;;;;;;5.07;2.43;;;;;;;;;;5046651;28;20440;-75
2023/01/10 08:34:35;;;;;;;5.47;3.00;;;;;;;;;;5047002;28;20456;-75
2023/01/10 08:37:02;;;;;;;6.87;2.60;;;;;;;;;;5046258;28;20441;-76
2023/01/10 08:39:29;;;;;;;6.97;2.80;;;;;;;;;;5047056;28;20472;-75
2023/01/10 08:41:56;;;;;;;6.90;2.57;;;;;;;;;;5047968;28;20980;-75
2023/01/10 08:44:25;;;;;;;7.50;2.87;;;;;;;;;;5049917;28;20472;-75
2023/01/10 08:46:52;;;;;;;6.37;2.33;;;;;;;;;;5050579;28;20849;-75
2023/01/10 08:49:19;;;;;;;3.27;2.70;;;;;;;;;;5050034;28;20559;-76
2023/01/10 08:51:46;;;;;;;4.67;2.97;;;;;;;;;;5049603;28;20443;-76
2023/01/10 08:54:13;;;;;;;5.50;2.93;;;;;;;;;;5049839;28;20991;-76
2023/01/10 08:56:40;;;;;;;8.33;2.67;;;;;;;;;;5050193;28;20448;-75
2023/01/10 08:59:08;;;;;;;11.23;2.77;;;;;;;;;;5050083;28;20473;-75
2023/01/10 09:01:36;;;;;;;7.40;2.70;;;;;;;;;;5049931;28;20449;-75
2023/01/10 09:04:04;;;;;;;5.13;2.77;;;;;;;;;;5049418;28;20484;-76
2023/01/10 09:06:31;;;;;;;9.57;3.00;;;;;;;;;;5049833;28;20524;-76
2023/01/10 09:08:58;;;;;;;4.20;2.10;;;;;;;;;;5049898;28;20468;-76
2023/01/10 09:11:25;;;;;;;4.60;2.73;;;;;;;;;;5050024;28;20518;-76
2023/01/10 09:13:52;;;;;;;5.97;3.27;;;;;;;;;;5049725;28;20819;-74
2023/01/10 09:16:19;;;;;;;5.30;3.17;;;;;;;;;;5049740;28;20438;-74
2023/01/10 09:18:48;;;;;;;7.23;2.50;;;;;;;;;;5049604;28;20906;-75
2023/01/10 09:21:15;;;;;;;3.10;2.67;;;;;;;;;;5049682;28;20446;-75
2023/01/10 09:23:43;;;;;;;6.47;3.10;;;;;;;;;;5049639;28;20500;-76
2023/01/10 09:26:10;;;;;;;5.87;2.70;;;;;;;;;;5049550;28;20442;-76
2023/01/10 09:28:37;;;;;;;7.40;3.10;;;;;;;;;;5052109;28;20480;-74
2023/01/10 09:31:06;;;;;;;7.70;2.87;;;;;;;;;;5052424;28;20448;-76
2023/01/10 09:33:33;;;;;;;6.30;2.80;;;;;;;;;;5055891;28;20809;-75
2023/01/10 09:36:01;;;;;;;3.03;2.47;;;;;;;;;;5062145;28;20468;-78
2023/01/10 09:38:28;;;;;;;7.20;3.43;;;;;;;;;;5059015;28;20458;-75
2023/01/10 09:41:02;;;;;;;6.30;2.73;;;;;;;;;;5053905;28;20446;-75
2023/01/10 09:43:34;;;;;;;9.17;3.57;;;;;;;;;;5051319;28;20468;-75
2023/01/10 09:46:05;;;;;;;5.80;3.40;;;;;;;;;;5051611;28;20453;-76
2023/01/10 09:48:36;;;;;;;8.73;3.53;;;;;;;;;;5051848;28;20461;-75
2023/01/10 09:51:10;;;;;;;7.23;3.60;;;;;;;;;;5052017;28;20441;-76
2023/01/10 09:53:39;;;;;;;8.83;3.43;;;;;;;;;;5051836;28;20441;-76
2023/01/10 09:56:07;;;;;;;6.03;3.40;;;;;;;;;;5051161;28;20452;-76
2023/01/10 09:58:36;;;;;;;6.30;3.50;;;;;;;;;;5051454;28;20831;-74
2023/01/10 10:01:05;;;;;;;9.03;3.53;;;;;;;;;;5050561;28;20476;-75
2023/01/10 10:03:36;;;;;;;7.33;3.73;;;;;;;;;;5050108;28;20477;-75
2023/01/10 10:06:03;;;;;;;7.47;3.40;;;;;;;;;;5052236;28;20437;-77
2023/01/10 10:08:31;;;;;;;6.83;2.90;;;;;;;;;;5052874;28;20466;-75
2023/01/10 10:11:02;;;;;;;9.80;3.20;;;;;;;;;;5055198;28;20457;-74
2023/01/10 10:13:36;;;;;;;6.10;3.53;;;;;;;;;;5060213;28;20437;-75
2023/01/10 10:16:07;;;;;;;4.30;2.63;;;;;;;;;;5057884;28;20503;-75
2023/01/10 10:18:41;;;;;;;4.27;3.00;;;;;;;;;;5058285;28;20470;-75
2023/01/10 10:21:11;;;;;;;5.70;2.90;;;;;;;;;;5053704;28;20952;-75
2023/01/10 10:23:46;;;;;;;7.90;3.63;;;;;;;;;;5048513;28;20485;-76
2023/01/10 10:26:16;;;;;;;6.60;3.07;;;;;;;;;;5049392;28;20433;-76
2023/01/10 10:29:00;;;;;;;7.47;3.20;;;;;;;;;;5049028;28;20905;-76
2023/01/10 10:31:33;;;;;;;4.33;3.93;;;;;;;;;;5047983;28;20536;-76
2023/01/10 10:34:03;;;;;;;4.43;2.70;;;;;;;;;;5046506;28;20815;-76
2023/01/10 10:36:35;;;;;;;6.07;3.47;;;;;;;;;;5045892;28;20437;-76
2023/01/10 10:39:04;;;;;;;5.23;3.17;;;;;;;;;;5048730;28;20453;-77
2023/01/10 10:41:33;;;;;;;7.10;3.00;;;;;;;;;;5052345;28;20444;-77
2023/01/10 10:44:03;;;;;;;3.20;2.33;;;;;;;;;;5045521;28;20485;-76
2023/01/10 10:46:31;;;;;;;4.03;2.40;;;;;;;;;;5055578;28;20442;-76
2023/01/10 10:48:59;;;;;;;3.90;2.77;;;;;;;;;;5054514;28;20465;-75
2023/01/10 10:51:28;;;;;;;3.73;2.30;;;;;;;;;;5049466;28;20449;-77
2023/01/10 10:53:55;;;;;;;7.03;3.00;;;;;;;;;;5056658;28;21012;-76
2023/01/10 10:56:25;;;;;;;6.47;3.13;;;;;;;;;;5048808;28;20457;-75
2023/01/10 10:58:54;;;;;;;3.43;2.43;;;;;;;;;;5056283;28;20472;-75
2023/01/10 11:01:21;;;;;;;4.00;2.67;;;;;;;;;;5057732;28;20465;-74
2023/01/10 11:03:50;;;;;;;3.47;2.20;;;;;;;;;;5056516;28;20469;-76
2023/01/10 11:06:19;;;;;;;5.40;3.27;;;;;;;;;;5055968;28;20452;-75
2023/01/10 11:08:47;;;;;;;4.70;2.73;;;;;;;;;;5056370;28;20557;-75
2023/01/10 11:11:18;;;;;;;6.50;2.83;;;;;;;;;;5056236;28;20816;-76
2023/01/10 11:13:49;;;;;;;4.10;2.20;;;;;;;;;;5050531;28;20426;-76
2023/01/10 11:16:27;;;;;;;3.70;2.40;;;;;;;;;;5047650;28;20437;-76
2023/01/10 11:19:11;;;;;;;3.57;2.10;;;;;;;;;;5047420;28;20489;-74
2023/01/10 11:21:39;;;;;;;3.37;2.43;;;;;;;;;;5047240;28;20472;-75
2023/01/10 11:24:06;;;;;;;6.47;3.10;;;;;;;;;;5047656;28;20481;-76
2023/01/10 11:26:39;;;;;;;3.43;2.20;;;;;;;;;;5047509;28;20457;-76
2023/01/10 11:29:09;;;;;;;3.40;2.40;;;;;;;;;;5047522;28;20466;-75
2023/01/10 11:31:36;;;;;;;3.60;2.47;;;;;;;;;;5048035;28;20446;-76
2023/01/10 11:34:06;;;;;;;7.07;2.70;;;;;;;;;;5047166;28;20528;-76
2023/01/10 11:36:52;;;;;;;6.37;2.40;;;;;;;;;;5042586;28;20454;-76
2023/01/10 11:39:19;;;;;;;4.10;1.97;;;;;;;;;;5043000;28;20523;-76
2023/01/10 11:41:48;;;;;;;6.50;2.40;;;;;;;;;;5047677;28;20449;-76
2023/01/10 11:44:22;;;;;;;6.60;2.50;;;;;;;;;;5047109;28;20518;-76
2023/01/10 11:46:50;;;;;;;3.00;2.07;;;;;;;;;;5047788;28;20445;-77
2023/01/10 11:49:21;;;;;;;3.60;2.20;;;;;;;;;;5047232;28;20473;-78
2023/01/10 11:51:50;;;;;;;5.00;2.37;;;;;;;;;;5047648;28;20434;-76
2023/01/10 11:54:20;;;;;;;4.20;1.93;;;;;;;;;;5047445;28;20783;-76
2023/01/10 11:56:51;;;;;;;3.87;1.97;;;;;;;;;;5047529;28;20496;-76
2023/01/10 11:59:20;;;;;;;5.30;3.47;;;;;;;;;;5047268;28;20878;-77
2023/01/10 12:01:49;;;;;;;6.60;2.50;;;;;;;;;;5048023;28;20507;-77
2023/01/10 12:04:16;;;;;;;5.30;2.67;;;;;;;;;;5047904;28;20492;-76
2023/01/10 12:06:44;;;;;;;7.50;2.70;;;;;;;;;;5048690;28;20448;-75
2023/01/10 12:09:32;;;;;;;5.00;2.27;;;;;;;;;;5048862;28;20961;-75
2023/01/10 12:12:02;;;;;;;6.17;2.10;;;;;;;;;;5049026;28;20449;-76
2023/01/10 12:14:30;;;;;;;6.10;2.10;;;;;;;;;;5050896;28;20470;-75
2023/01/10 12:17:01;;;;;;;3.90;2.53;;;;;;;;;;5053902;28;20446;-75
2023/01/10 12:19:29;;;;;;;3.60;2.33;;;;;;;;;;5052846;28;20503;-76
2023/01/10 12:21:59;;;;;;;5.30;2.30;;;;;;;;;;5051993;28;20536;-75
2023/01/10 12:24:28;;;;;;;3.47;2.47;;;;;;;;;;5052644;28;20473;-75
2023/01/10 12:26:55;;;;;;;2.53;1.97;;;;;;;;;;5051743;28;20456;-76
2023/01/10 12:29:28;;;;;;;5.70;2.20;;;;;;;;;;5050939;28;20465;-76
2023/01/10 12:31:57;;;;;;;3.00;2.20;;;;;;;;;;5051093;28;20452;-76
2023/01/10 12:34:26;;;;;;;6.57;2.23;;;;;;;;;;5050858;28;20442;-76
2023/01/10 12:36:58;;;;;;;5.20;2.13;;;;;;;;;;5070246;28;20875;-76
2023/01/10 12:39:29;;;;;;;4.03;2.10;;;;;;;;;;5072383;28;20464;-75
2023/01/10 12:44:45;;;;;;;2.00;1.77;;;;;;;;;;5073380;28;20542;-77
2023/01/10 12:47:17;;;;;;;3.53;1.90;;;;;;;;;;5071956;28;20448;-76
2023/01/10 12:49:48;;;;;;;4.43;1.90;;;;;;;;;;5077452;28;20504;-76
2023/01/10 12:52:18;;;;;;;3.60;1.93;;;;;;;;;;5078133;28;21030;-78
2023/01/10 12:54:46;;;;;;;6.53;2.80;;;;;;;;;;5071962;28;20858;-75
2023/01/10 12:57:18;;;;;;;4.17;1.70;;;;;;;;;;5070549;28;20880;-76
2023/01/10 12:59:45;;;;;;;5.07;1.77;;;;;;;;;;5070604;28;20464;-75
2023/01/10 13:02:16;;;;;;;7.30;1.97;;;;;;;;;;5070358;28;20436;-76
2023/01/10 13:04:47;;;;;;;5.00;1.70;;;;;;;;;;5069638;28;20476;-74
2023/01/10 13:07:14;;;;;;;2.53;1.87;;;;;;;;;;5070104;28;20437;-75
2023/01/10 13:09:42;;;;;;;3.77;1.70;;;;;;;;;;5069749;28;20472;-76
2023/01/10 13:12:13;;;;;;;3.73;1.73;;;;;;;;;;5070462;28;20449;-76
2023/01/10 13:14:43;;;;;;;2.40;1.50;;;;;;;;;;5070397;28;21099;-75
2023/01/10 13:17:15;;;;;;;4.37;1.90;;;;;;;;;;5070914;28;20452;-76
2023/01/10 13:19:43;;;;;;;3.47;1.43;;;;;;;;;;5069968;28;20476;-74
2023/01/10 13:22:18;;;;;;;3.93;1.80;;;;;;;;;;5071425;28;20452;-74
2023/01/10 13:24:55;;;;;;;2.60;1.70;;;;;;;;;;5070556;28;20526;-76
2023/01/10 13:27:23;;;;;;;2.23;1.57;;;;;;;;;;5069928;28;20456;-75
2023/01/10 13:29:50;;;;;;;3.80;2.00;;;;;;;;;;5070316;28;20495;-76
2023/01/10 13:32:22;;;;;;;5.10;2.00;;;;;;;;;;5069440;28;20826;-75
2023/01/10 13:34:51;;;;;;;3.90;2.30;;;;;;;;;;5069464;28;20974;-78
2023/01/10 13:37:22;;;;;;;5.00;1.50;;;;;;;;;;5070078;28;20547;-74
2023/01/10 13:39:52;;;;;;;3.33;1.80;;;;;;;;;;5069935;28;20460;-76
2023/01/10 13:45:16;;;;;;;5.37;2.10;;;;;;;;;;5070273;28;20467;-75
2023/01/10 13:48:00;;;;;;;6.00;1.80;;;;;;;;;;5070049;28;20522;-76
2023/01/10 13:50:45;;;;;;;2.67;1.67;;;;;;;;;;5069890;28;20452;-76
2023/01/10 13:53:47;;;;;;;8.00;1.80;;;;;;;;;;5069397;28;20447;-77
2023/01/10 13:56:30;;;;;;;6.87;1.80;;;;;;;;;;5007372;28;20466;-77
2023/01/10 14:04:29;;;;;;;2.87;1.50;;;;;;;;;;5069562;28;21521;-77
2023/01/10 14:06:57;;;;;;;4.90;3.00;;;;;;;;;;5069018;28;20459;-76
2023/01/10 14:09:32;;;;;;;4.80;2.07;;;;;;;;;;5069532;28;20480;-75
2023/01/10 14:12:02;;;;;;;4.17;1.90;;;;;;;;;;5069190;28;20442;-75
2023/01/10 14:14:31;;;;;;;5.17;1.90;;;;;;;;;;5066274;28;21172;-76
2023/01/10 14:17:08;;;;;;;7.27;2.50;;;;;;;;;;5049114;28;20449;-77
2023/01/10 14:19:36;;;;;;;4.50;1.97;;;;;;;;;;5048823;28;20461;-76
2023/01/10 14:22:03;;;;;;;3.43;1.77;;;;;;;;;;5048518;28;20453;-75
2023/01/10 14:24:32;;;;;;;2.03;1.83;;;;;;;;;;5048972;28;20915;-76
2023/01/10 14:27:01;;;;;;;6.90;2.20;;;;;;;;;;5048543;28;20450;-75
2023/01/10 14:29:31;;;;;;;4.20;1.90;;;;;;;;;;5048206;28;20465;-76
2023/01/10 14:31:59;;;;;;;2.70;1.73;;;;;;;;;;5048817;28;20511;-76
2023/01/10 14:34:27;;;;;;;3.23;1.70;;;;;;;;;;5048303;28;20445;-74
2023/01/10 14:36:58;;;;;;;6.20;1.90;;;;;;;;;;5048593;28;20919;-75
2023/01/10 14:39:25;;;;;;;5.00;1.80;;;;;;;;;;5048355;28;20473;-76
2023/01/10 14:41:53;;;;;;;2.83;1.60;;;;;;;;;;5048196;28;20454;-77
2023/01/10 14:44:24;;;;;;;3.00;1.47;;;;;;;;;;5047544;28;21226;-75
2023/01/10 14:46:52;;;;;;;4.37;1.87;;;;;;;;;;5047974;28;20452;-75
2023/01/10 14:49:21;;;;;;;7.30;1.80;;;;;;;;;;5048234;28;20469;-76
2023/01/10 14:51:49;;;;;;;2.30;1.90;;;;;;;;;;5048753;28;20492;-75
2023/01/10 14:54:17;;;;;;;3.87;1.47;;;;;;;;;;5048758;28;20445;-76
2023/01/10 14:56:45;;;;;;;2.33;1.63;;;;;;;;;;5049887;28;20451;-74
2023/01/10 14:59:35;;;;;;;1.80;1.47;;;;;;;;;;5050341;28;20977;-76
2023/01/10 15:02:11;;;;;;;2.43;2.10;;;;;;;;;;5046297;28;20455;-74
2023/01/10 15:04:46;;;;;;;5.07;2.00;;;;;;;;;;5052098;28;20472;-75
2023/01/10 15:07:16;;;;;;;3.80;1.90;;;;;;;;;;5052681;28;20912;-76
2023/01/10 15:09:48;;;;;;;6.10;2.50;;;;;;;;;;5052751;28;20457;-76
2023/01/10 15:12:16;;;;;;;2.73;1.70;;;;;;;;;;5051369;28;20430;-74